createdAt,value
2023-05-10T05:01:09.491Z,58.62
2023-05-10T05:04:12.576Z,58.62
2023-05-10T05:07:15.190Z,60.04
2023-05-10T05:10:18.021Z,59.69
2023-05-10T05:13:20.731Z,59.79
2023-05-10T05:16:23.481Z,60.42
2023-05-10T05:19:25.887Z,60.58
2023-05-10T05:22:29.120Z,60.01
2023-05-10T05:25:31.500Z,60.05
2023-05-10T05:28:38.112Z,60.24
2023-05-10T05:31:43.265Z,59.34
2023-05-10T05:34:46.782Z,59.67
2023-05-10T05:37:49.294Z,59.08
2023-05-10T05:40:52.001Z,58.49
2023-05-10T05:43:54.560Z,57.78
2023-05-10T05:46:57.478Z,57.99
2023-05-10T05:49:59.927Z,58.62
2023-05-10T05:53:03.426Z,57.92
2023-05-10T05:56:06.033Z,56.91
2023-05-10T05:59:09.184Z,57.45
2023-05-10T06:02:11.970Z,57.05
2023-05-10T06:05:15.423Z,57.17
2023-05-10T06:08:18.042Z,55.79
2023-05-10T06:11:22.091Z,53.49
2023-05-10T06:14:24.668Z,52.55
2023-05-10T06:17:27.639Z,51.92
2023-05-10T06:20:32.561Z,52.00
2023-05-10T06:23:35.473Z,52.75
2023-05-10T06:26:37.934Z,51.58
2023-05-10T06:29:40.635Z,50.49
2023-05-10T06:32:45.183Z,48.46
2023-05-10T06:35:48.216Z,49.57
2023-05-10T06:38:51.935Z,52.03
2023-05-10T06:41:55.516Z,50.48
2023-05-10T06:44:58.104Z,48.70
2023-05-10T06:48:02.115Z,46.08
2023-05-10T06:51:05.659Z,45.58
2023-05-10T06:54:08.397Z,45.26
2023-05-10T06:57:23.364Z,47.81
2023-05-10T07:00:33.980Z,46.17
2023-05-10T07:03:36.633Z,47.86
2023-05-10T07:06:39.466Z,48.63
2023-05-10T07:09:42.041Z,48.34
2023-05-10T07:12:44.894Z,46.97
2023-05-10T07:15:47.501Z,47.27
2023-05-10T07:18:51.667Z,44.78
2023-05-10T07:21:54.072Z,41.97
2023-05-10T07:24:57.092Z,43.64
2023-05-10T07:27:59.521Z,43.81
2023-05-10T07:31:02.685Z,44.46
2023-05-10T07:34:06.954Z,44.17
2023-05-10T07:37:09.755Z,41.57
2023-05-10T07:40:12.504Z,44.92
2023-05-10T07:43:15.580Z,46.09
2023-05-10T07:46:18.356Z,45.87
2023-05-10T07:49:21.385Z,44.94
2023-05-10T07:52:23.974Z,44.60
2023-05-10T07:55:27.693Z,43.58
2023-05-10T07:58:30.402Z,45.35
2023-05-10T08:01:34.232Z,42.51
2023-05-10T08:04:37.093Z,44.86
2023-05-10T08:07:40.664Z,45.52
2023-05-10T08:10:43.742Z,46.17
2023-05-10T08:13:46.636Z,46.70
2023-05-10T08:16:49.461Z,47.79
2023-05-10T08:19:52.908Z,46.08
2023-05-10T08:22:56.225Z,45.17
2023-05-10T08:25:58.935Z,46.19
2023-05-10T08:29:01.686Z,43.33
2023-05-10T08:32:09.880Z,41.77
2023-05-10T08:35:12.570Z,42.36
2023-05-10T08:38:15.177Z,41.68
2023-05-10T08:41:21.949Z,42.72
2023-05-10T08:44:24.673Z,41.22
2023-05-10T08:47:27.718Z,43.08
2023-05-10T08:50:32.337Z,43.75
2023-05-10T08:53:37.659Z,44.17
2023-05-10T08:56:40.288Z,44.95
2023-05-10T08:59:43.980Z,46.14
2023-05-10T09:02:50.541Z,44.00
2023-05-10T09:05:54.511Z,40.59
2023-05-10T09:08:58.104Z,40.21
2023-05-10T09:12:00.868Z,42.30
2023-05-10T09:15:05.082Z,41.83
2023-05-10T09:18:08.138Z,41.09
2023-05-10T09:21:11.952Z,40.72
2023-05-10T09:24:14.654Z,41.17
2023-05-10T09:27:17.110Z,39.40
2023-05-10T09:30:32.576Z,40.11
2023-05-10T09:33:46.121Z,38.98
2023-05-10T09:37:05.250Z,38.81
2023-05-10T09:40:08.661Z,38.50
2023-05-10T09:43:11.876Z,39.06
2023-05-10T09:46:14.777Z,40.72
2023-05-10T09:49:17.568Z,40.46
2023-05-10T09:52:19.965Z,40.98
2023-05-10T09:55:24.637Z,42.86
2023-05-10T09:58:27.280Z,42.65
2023-05-10T10:01:31.433Z,41.19
2023-05-10T10:04:40.665Z,38.15
2023-05-10T10:07:43.353Z,39.32
2023-05-10T10:10:47.216Z,39.37
2023-05-10T10:13:50.362Z,41.22
2023-05-10T10:17:06.435Z,41.96
2023-05-10T10:20:12.270Z,42.04
2023-05-10T10:23:16.681Z,40.44
2023-05-10T10:26:22.060Z,37.71
2023-05-10T10:29:40.755Z,38.21
2023-05-10T10:33:29.262Z,37.21
2023-05-10T10:36:34.253Z,38.74
2023-05-10T10:39:37.990Z,37.57
2023-05-10T10:42:50.884Z,38.22
2023-05-10T10:46:17.129Z,36.61
2023-05-10T10:49:20.284Z,35.20
2023-05-10T10:52:34.373Z,36.72
2023-05-10T10:55:49.444Z,35.79
2023-05-10T10:58:54.663Z,37.01
2023-05-10T11:01:58.071Z,36.69
2023-05-10T11:05:02.213Z,36.23
2023-05-10T11:08:20.236Z,34.93
2023-05-10T11:11:24.072Z,36.45
2023-05-10T11:14:28.304Z,37.27
2023-05-10T11:17:31.909Z,36.91
2023-05-10T11:20:41.573Z,36.75
2023-05-10T11:23:53.677Z,37.64
2023-05-10T11:26:57.549Z,37.64
2023-05-10T11:30:00.453Z,38.61
2023-05-10T11:33:06.018Z,38.48
2023-05-10T11:36:13.167Z,37.86
2023-05-10T11:39:17.175Z,37.60
2023-05-10T11:42:20.737Z,37.78
2023-05-10T11:45:25.813Z,36.81
2023-05-10T11:48:30.451Z,38.08
2023-05-10T11:51:37.745Z,38.14
2023-05-10T11:54:52.570Z,37.97
2023-05-10T11:57:56.430Z,37.53
2023-05-10T12:01:01.114Z,38.03
2023-05-10T12:04:05.711Z,37.71
2023-05-10T12:07:11.450Z,37.07
2023-05-10T12:13:44.930Z,37.16
2023-05-10T12:16:50.109Z,36.69
2023-05-10T12:19:53.734Z,36.86
2023-05-10T12:23:00.726Z,35.87
2023-05-10T12:26:05.341Z,36.69
2023-05-10T12:29:19.298Z,36.49
2023-05-10T12:32:21.843Z,36.40
2023-05-10T12:35:25.216Z,35.98
2023-05-10T12:38:36.568Z,35.57
2023-05-10T12:41:41.479Z,36.52
2023-05-10T12:44:46.284Z,36.27
2023-05-10T12:47:49.753Z,35.98
2023-05-10T12:50:53.217Z,36.51
2023-05-10T12:53:56.824Z,36.50
2023-05-10T12:56:59.723Z,36.13
2023-05-10T13:00:04.871Z,36.84
2023-05-10T13:03:08.326Z,37.77
2023-05-10T13:06:15.122Z,37.40
2023-05-10T13:09:17.799Z,36.61
2023-05-10T13:12:20.542Z,36.09
2023-05-10T13:15:23.767Z,35.78
2023-05-10T13:18:27.670Z,35.18
2023-05-10T13:21:30.535Z,35.47
2023-05-10T13:24:33.634Z,35.15
2023-05-10T13:27:36.391Z,34.20
2023-05-10T13:30:39.185Z,32.54
2023-05-10T13:33:41.604Z,31.77
2023-05-10T13:36:44.536Z,32.11
2023-05-10T13:39:47.359Z,32.65
2023-05-10T13:42:51.326Z,33.07
2023-05-10T13:45:54.091Z,33.98
2023-05-10T13:48:58.076Z,34.72
2023-05-10T13:52:01.991Z,34.11
2023-05-10T13:55:05.360Z,33.65
2023-05-10T13:58:07.863Z,33.42
2023-05-10T14:01:10.640Z,33.00
2023-05-10T14:04:14.024Z,31.94
2023-05-10T14:07:16.618Z,32.23
2023-05-10T14:10:19.331Z,33.24
2023-05-10T14:13:22.164Z,32.49
2023-05-10T14:16:25.000Z,31.97
2023-05-10T14:19:28.272Z,32.45
2023-05-10T14:22:31.592Z,32.08
2023-05-10T14:25:34.294Z,32.98
2023-05-10T14:28:37.408Z,33.60
2023-05-10T14:31:40.157Z,33.20
2023-05-10T14:34:43.303Z,32.73
2023-05-10T14:37:46.026Z,31.96
2023-05-10T14:40:48.778Z,31.70
2023-05-10T14:43:51.399Z,31.67
2023-05-10T14:46:54.189Z,30.76
2023-05-10T14:49:56.773Z,31.21
2023-05-10T14:53:00.189Z,31.86
2023-05-10T14:56:02.750Z,32.03
2023-05-10T14:59:05.633Z,32.78
2023-05-10T15:02:09.406Z,33.43
2023-05-10T15:05:12.864Z,34.49
2023-05-10T15:08:15.902Z,35.50
2023-05-10T15:11:18.785Z,34.93
2023-05-10T15:14:21.519Z,34.66
2023-05-10T15:17:24.682Z,34.97
2023-05-10T15:20:27.283Z,34.95
2023-05-10T15:23:31.043Z,34.37
2023-05-10T15:26:33.775Z,34.37
2023-05-10T15:29:36.880Z,33.66
2023-05-10T15:32:41.095Z,34.15
2023-05-10T15:35:43.810Z,34.21
2023-05-10T15:38:46.531Z,33.88
2023-05-10T16:34:34.673Z,34.27
2023-05-10T16:37:37.611Z,34.27
2023-05-10T16:40:40.068Z,35.03
2023-05-10T16:43:42.741Z,35.56
2023-05-10T16:46:45.819Z,35.96
2023-05-10T16:49:48.638Z,36.73
2023-05-10T16:52:51.267Z,37.37
2023-05-10T16:55:54.113Z,37.31
2023-05-10T16:58:57.736Z,37.26
2023-05-10T17:02:04.198Z,37.72
2023-05-10T17:05:07.147Z,37.83
2023-05-10T17:08:10.468Z,38.26
2023-05-10T17:11:12.970Z,39.07
2023-05-10T17:14:15.773Z,39.97
2023-05-10T17:17:18.891Z,39.88
2023-05-10T17:20:22.309Z,39.80
2023-05-10T17:23:24.887Z,40.10
2023-05-10T17:26:27.863Z,40.65
2023-05-10T17:29:32.190Z,41.25
2023-05-10T17:32:35.100Z,41.18
2023-05-10T17:35:37.776Z,41.43
2023-05-10T17:38:40.632Z,41.31
2023-05-10T17:41:43.080Z,41.29
2023-05-10T17:44:46.130Z,41.32
2023-05-10T17:47:48.610Z,41.49
2023-05-10T17:50:51.652Z,41.42
2023-05-10T17:53:54.792Z,41.44
2023-05-10T17:56:58.233Z,41.60
2023-05-10T18:00:02.278Z,41.95
2023-05-10T18:03:07.491Z,41.77
2023-05-10T18:06:10.544Z,41.91
2023-05-10T18:09:13.232Z,42.00
2023-05-10T18:12:16.258Z,42.25
2023-05-10T18:15:19.042Z,42.15
2023-05-10T18:18:22.237Z,42.56
2023-05-10T18:21:25.017Z,42.37
2023-05-10T18:24:38.383Z,42.24
2023-05-10T18:27:42.396Z,42.14
2023-05-10T18:30:46.621Z,42.21
2023-05-10T18:33:49.199Z,42.28
2023-05-10T18:36:52.483Z,42.32
